sensor_id;sensor_type;location;lat;lon;timestamp;P1;durP1;ratioP1;P2;durP2;ratioP2
51216;SDS011;37283;49.760;8.648;2023-09-19T00:00:41;3.95;;;1.42;;
51216;SDS011;37283;49.760;8.648;2023-09-19T00:03:08;4.47;;;1.40;;
51216;SDS011;37283;49.760;8.648;2023-09-19T00:05:35;4.07;;;1.40;;
51216;SDS011;37283;49.760;8.648;2023-09-19T00:10:32;4.70;;;1.58;;
51216;SDS011;37283;49.760;8.648;2023-09-19T00:13:02;2.30;;;1.20;;
51216;SDS011;37283;49.760;8.648;2023-09-19T00:15:35;4.88;;;1.20;;
51216;SDS011;37283;49.760;8.648;2023-09-19T00:18:04;4.35;;;1.40;;
51216;SDS011;37283;49.760;8.648;2023-09-19T00:20:38;4.80;;;1.40;;
51216;SDS011;37283;49.760;8.648;2023-09-19T00:23:05;3.85;;;1.40;;
51216;SDS011;37283;49.760;8.648;2023-09-19T00:25:37;4.30;;;1.70;;
51216;SDS011;37283;49.760;8.648;2023-09-19T00:28:04;3.00;;;1.08;;
51216;SDS011;37283;49.760;8.648;2023-09-19T00:30:33;3.95;;;1.60;;
51216;SDS011;37283;49.760;8.648;2023-09-19T00:33:01;3.67;;;1.33;;
51216;SDS011;37283;49.760;8.648;2023-09-19T00:35:32;4.60;;;1.42;;
51216;SDS011;37283;49.760;8.648;2023-09-19T00:38:00;4.47;;;1.85;;
51216;SDS011;37283;49.760;8.648;2023-09-19T00:40:26;5.55;;;1.65;;
51216;SDS011;37283;49.760;8.648;2023-09-19T00:42:53;4.22;;;1.50;;
51216;SDS011;37283;49.760;8.648;2023-09-19T00:45:25;3.38;;;1.60;;
51216;SDS011;37283;49.760;8.648;2023-09-19T00:47:52;4.85;;;1.60;;
51216;SDS011;37283;49.760;8.648;2023-09-19T00:50:21;3.95;;;1.60;;
51216;SDS011;37283;49.760;8.648;2023-09-19T00:52:50;4.22;;;1.38;;
51216;SDS011;37283;49.760;8.648;2023-09-19T00:55:25;6.15;;;1.38;;
51216;SDS011;37283;49.760;8.648;2023-09-19T00:57:52;6.35;;;2.30;;
51216;SDS011;37283;49.760;8.648;2023-09-19T01:00:19;4.60;;;1.85;;
51216;SDS011;37283;49.760;8.648;2023-09-19T01:02:46;4.18;;;1.80;;
51216;SDS011;37283;49.760;8.648;2023-09-19T01:05:14;3.65;;;1.50;;
51216;SDS011;37283;49.760;8.648;2023-09-19T01:07:41;2.40;;;1.50;;
51216;SDS011;37283;49.760;8.648;2023-09-19T01:10:09;4.00;;;1.80;;
51216;SDS011;37283;49.760;8.648;2023-09-19T01:20:45;4.78;;;1.80;;
51216;SDS011;37283;49.760;8.648;2023-09-19T01:25:56;5.75;;;1.83;;
51216;SDS011;37283;49.760;8.648;2023-09-19T01:28:34;5.10;;;1.90;;
51216;SDS011;37283;49.760;8.648;2023-09-19T01:31:24;3.17;;;2.03;;
51216;SDS011;37283;49.760;8.648;2023-09-19T01:36:23;3.47;;;2.35;;
51216;SDS011;37283;49.760;8.648;2023-09-19T01:38:51;3.95;;;2.28;;
51216;SDS011;37283;49.760;8.648;2023-09-19T01:41:21;4.82;;;1.90;;
51216;SDS011;37283;49.760;8.648;2023-09-19T01:43:57;3.13;;;1.83;;
51216;SDS011;37283;49.760;8.648;2023-09-19T01:46:28;3.88;;;2.10;;
51216;SDS011;37283;49.760;8.648;2023-09-19T01:49:04;4.43;;;1.88;;
51216;SDS011;37283;49.760;8.648;2023-09-19T01:51:42;4.97;;;1.80;;
51216;SDS011;37283;49.760;8.648;2023-09-19T01:54:14;3.83;;;1.50;;
51216;SDS011;37283;49.760;8.648;2023-09-19T01:56:50;2.05;;;1.48;;
51216;SDS011;37283;49.760;8.648;2023-09-19T01:59:21;5.60;;;1.85;;
51216;SDS011;37283;49.760;8.648;2023-09-19T02:01:53;4.97;;;1.92;;
51216;SDS011;37283;49.760;8.648;2023-09-19T02:04:21;6.35;;;1.60;;
51216;SDS011;37283;49.760;8.648;2023-09-19T02:06:48;3.28;;;1.70;;
51216;SDS011;37283;49.760;8.648;2023-09-19T02:09:14;3.03;;;1.60;;
51216;SDS011;37283;49.760;8.648;2023-09-19T02:11:41;4.07;;;1.75;;
51216;SDS011;37283;49.760;8.648;2023-09-19T02:14:08;4.30;;;1.67;;
51216;SDS011;37283;49.760;8.648;2023-09-19T02:16:35;5.07;;;1.63;;
51216;SDS011;37283;49.760;8.648;2023-09-19T02:19:02;7.05;;;2.20;;
51216;SDS011;37283;49.760;8.648;2023-09-19T02:21:32;3.17;;;1.40;;
51216;SDS011;37283;49.760;8.648;2023-09-19T02:23:59;2.40;;;1.40;;
51216;SDS011;37283;49.760;8.648;2023-09-19T02:26:26;4.47;;;1.80;;
51216;SDS011;37283;49.760;8.648;2023-09-19T02:28:53;4.00;;;1.48;;
51216;SDS011;37283;49.760;8.648;2023-09-19T02:31:20;4.40;;;2.03;;
51216;SDS011;37283;49.760;8.648;2023-09-19T02:33:47;4.25;;;1.60;;
51216;SDS011;37283;49.760;8.648;2023-09-19T02:36:13;2.85;;;1.65;;
51216;SDS011;37283;49.760;8.648;2023-09-19T02:38:43;4.15;;;1.75;;
51216;SDS011;37283;49.760;8.648;2023-09-19T02:41:10;4.07;;;1.73;;
51216;SDS011;37283;49.760;8.648;2023-09-19T02:43:37;4.57;;;1.52;;
51216;SDS011;37283;49.760;8.648;2023-09-19T02:46:04;4.30;;;1.77;;
51216;SDS011;37283;49.760;8.648;2023-09-19T02:48:31;2.33;;;1.35;;
51216;SDS011;37283;49.760;8.648;2023-09-19T02:50:58;3.80;;;1.70;;
51216;SDS011;37283;49.760;8.648;2023-09-19T02:53:25;3.72;;;1.58;;
51216;SDS011;37283;49.760;8.648;2023-09-19T02:55:52;4.32;;;1.80;;
51216;SDS011;37283;49.760;8.648;2023-09-19T02:58:20;3.03;;;1.37;;
51216;SDS011;37283;49.760;8.648;2023-09-19T03:00:47;2.22;;;1.52;;
51216;SDS011;37283;49.760;8.648;2023-09-19T03:03:16;3.25;;;1.50;;
51216;SDS011;37283;49.760;8.648;2023-09-19T03:05:43;4.00;;;1.70;;
51216;SDS011;37283;49.760;8.648;2023-09-19T03:08:16;3.90;;;1.80;;
51216;SDS011;37283;49.760;8.648;2023-09-19T03:10:46;2.80;;;1.50;;
51216;SDS011;37283;49.760;8.648;2023-09-19T03:13:14;5.00;;;1.73;;
51216;SDS011;37283;49.760;8.648;2023-09-19T03:15:44;3.47;;;1.50;;
51216;SDS011;37283;49.760;8.648;2023-09-19T03:18:15;4.50;;;1.70;;
51216;SDS011;37283;49.760;8.648;2023-09-19T03:20:42;2.42;;;1.45;;
51216;SDS011;37283;49.760;8.648;2023-09-19T03:23:08;3.15;;;1.70;;
51216;SDS011;37283;49.760;8.648;2023-09-19T03:25:35;3.33;;;1.30;;
51216;SDS011;37283;49.760;8.648;2023-09-19T03:28:02;3.20;;;1.60;;
51216;SDS011;37283;49.760;8.648;2023-09-19T03:30:32;2.58;;;1.40;;
51216;SDS011;37283;49.760;8.648;2023-09-19T03:33:02;3.83;;;1.60;;
51216;SDS011;37283;49.760;8.648;2023-09-19T03:35:32;3.55;;;1.50;;
51216;SDS011;37283;49.760;8.648;2023-09-19T03:38:00;3.10;;;1.50;;
51216;SDS011;37283;49.760;8.648;2023-09-19T03:40:26;3.67;;;1.90;;
51216;SDS011;37283;49.760;8.648;2023-09-19T03:42:53;3.63;;;1.75;;
51216;SDS011;37283;49.760;8.648;2023-09-19T03:45:20;3.80;;;2.00;;
51216;SDS011;37283;49.760;8.648;2023-09-19T03:47:50;3.65;;;1.70;;
51216;SDS011;37283;49.760;8.648;2023-09-19T03:50:19;3.25;;;1.50;;
51216;SDS011;37283;49.760;8.648;2023-09-19T03:52:46;3.40;;;1.80;;
51216;SDS011;37283;49.760;8.648;2023-09-19T03:55:13;3.75;;;1.70;;
51216;SDS011;37283;49.760;8.648;2023-09-19T03:57:40;3.40;;;1.58;;
51216;SDS011;37283;49.760;8.648;2023-09-19T04:00:08;6.30;;;1.90;;
51216;SDS011;37283;49.760;8.648;2023-09-19T04:02:39;4.20;;;2.00;;
51216;SDS011;37283;49.760;8.648;2023-09-19T04:05:07;5.38;;;1.90;;
51216;SDS011;37283;49.760;8.648;2023-09-19T04:07:34;4.55;;;2.33;;
51216;SDS011;37283;49.760;8.648;2023-09-19T04:10:01;4.93;;;2.38;;
51216;SDS011;37283;49.760;8.648;2023-09-19T04:12:28;4.38;;;2.17;;
51216;SDS011;37283;49.760;8.648;2023-09-19T04:14:55;4.43;;;2.28;;
51216;SDS011;37283;49.760;8.648;2023-09-19T04:17:21;4.25;;;2.33;;
51216;SDS011;37283;49.760;8.648;2023-09-19T04:19:50;7.13;;;2.88;;
51216;SDS011;37283;49.760;8.648;2023-09-19T04:22:17;5.50;;;2.97;;
51216;SDS011;37283;49.760;8.648;2023-09-19T04:24:43;7.95;;;2.50;;
51216;SDS011;37283;49.760;8.648;2023-09-19T04:27:10;4.93;;;2.80;;
51216;SDS011;37283;49.760;8.648;2023-09-19T04:29:39;3.83;;;2.58;;
51216;SDS011;37283;49.760;8.648;2023-09-19T04:32:05;5.43;;;2.83;;
51216;SDS011;37283;49.760;8.648;2023-09-19T04:34:32;5.55;;;2.80;;
51216;SDS011;37283;49.760;8.648;2023-09-19T04:37:01;4.07;;;2.03;;
51216;SDS011;37283;49.760;8.648;2023-09-19T04:39:28;4.93;;;2.63;;
51216;SDS011;37283;49.760;8.648;2023-09-19T04:41:55;5.30;;;2.60;;
51216;SDS011;37283;49.760;8.648;2023-09-19T04:44:21;4.32;;;2.35;;
51216;SDS011;37283;49.760;8.648;2023-09-19T04:46:48;6.55;;;2.97;;
51216;SDS011;37283;49.760;8.648;2023-09-19T04:49:15;6.05;;;3.10;;
51216;SDS011;37283;49.760;8.648;2023-09-19T04:51:42;5.55;;;2.70;;
51216;SDS011;37283;49.760;8.648;2023-09-19T04:54:09;6.43;;;2.85;;
51216;SDS011;37283;49.760;8.648;2023-09-19T04:56:35;4.80;;;2.65;;
51216;SDS011;37283;49.760;8.648;2023-09-19T04:59:02;6.15;;;2.90;;
51216;SDS011;37283;49.760;8.648;2023-09-19T05:01:28;4.45;;;2.58;;
51216;SDS011;37283;49.760;8.648;2023-09-19T05:03:55;7.07;;;2.60;;
51216;SDS011;37283;49.760;8.648;2023-09-19T05:06:22;9.48;;;2.92;;
51216;SDS011;37283;49.760;8.648;2023-09-19T05:08:49;4.93;;;2.70;;
51216;SDS011;37283;49.760;8.648;2023-09-19T05:11:18;5.60;;;2.50;;
51216;SDS011;37283;49.760;8.648;2023-09-19T05:13:45;6.13;;;2.63;;
51216;SDS011;37283;49.760;8.648;2023-09-19T05:16:12;10.68;;;3.33;;
51216;SDS011;37283;49.760;8.648;2023-09-19T05:18:38;4.63;;;2.63;;
51216;SDS011;37283;49.760;8.648;2023-09-19T05:21:05;5.95;;;2.72;;
51216;SDS011;37283;49.760;8.648;2023-09-19T05:23:32;6.05;;;2.90;;
51216;SDS011;37283;49.760;8.648;2023-09-19T05:25:59;6.80;;;2.47;;
51216;SDS011;37283;49.760;8.648;2023-09-19T05:28:26;6.85;;;2.80;;
51216;SDS011;37283;49.760;8.648;2023-09-19T05:30:53;5.57;;;2.83;;
51216;SDS011;37283;49.760;8.648;2023-09-19T05:33:19;5.57;;;2.22;;
51216;SDS011;37283;49.760;8.648;2023-09-19T05:35:49;3.47;;;1.85;;
51216;SDS011;37283;49.760;8.648;2023-09-19T05:38:16;5.05;;;2.30;;
51216;SDS011;37283;49.760;8.648;2023-09-19T05:40:45;5.80;;;2.88;;
51216;SDS011;37283;49.760;8.648;2023-09-19T05:43:12;7.25;;;2.45;;
51216;SDS011;37283;49.760;8.648;2023-09-19T05:45:40;6.28;;;2.20;;
51216;SDS011;37283;49.760;8.648;2023-09-19T05:48:13;4.25;;;2.00;;
51216;SDS011;37283;49.760;8.648;2023-09-19T05:50:42;5.35;;;2.10;;
51216;SDS011;37283;49.760;8.648;2023-09-19T05:53:08;7.07;;;2.60;;
51216;SDS011;37283;49.760;8.648;2023-09-19T05:55:38;6.03;;;2.35;;
51216;SDS011;37283;49.760;8.648;2023-09-19T05:58:05;6.90;;;2.28;;
51216;SDS011;37283;49.760;8.648;2023-09-19T06:00:31;4.65;;;2.13;;
51216;SDS011;37283;49.760;8.648;2023-09-19T06:02:58;4.70;;;2.40;;
51216;SDS011;37283;49.760;8.648;2023-09-19T06:05:26;5.45;;;2.00;;
51216;SDS011;37283;49.760;8.648;2023-09-19T06:07:53;4.30;;;1.90;;
51216;SDS011;37283;49.760;8.648;2023-09-19T06:10:20;4.35;;;2.10;;
51216;SDS011;37283;49.760;8.648;2023-09-19T06:12:47;5.72;;;2.15;;
51216;SDS011;37283;49.760;8.648;2023-09-19T06:15:14;4.63;;;1.90;;
51216;SDS011;37283;49.760;8.648;2023-09-19T06:17:52;4.30;;;2.13;;
51216;SDS011;37283;49.760;8.648;2023-09-19T06:20:24;4.93;;;1.90;;
51216;SDS011;37283;49.760;8.648;2023-09-19T06:22:54;4.93;;;1.80;;
51216;SDS011;37283;49.760;8.648;2023-09-19T06:25:21;3.80;;;1.67;;
51216;SDS011;37283;49.760;8.648;2023-09-19T06:27:49;4.57;;;1.80;;
51216;SDS011;37283;49.760;8.648;2023-09-19T06:30:18;7.45;;;2.17;;
51216;SDS011;37283;49.760;8.648;2023-09-19T06:32:45;4.72;;;1.92;;
51216;SDS011;37283;49.760;8.648;2023-09-19T06:35:12;6.20;;;2.22;;
51216;SDS011;37283;49.760;8.648;2023-09-19T06:37:40;8.73;;;2.78;;
51216;SDS011;37283;49.760;8.648;2023-09-19T06:40:08;7.43;;;2.25;;
51216;SDS011;37283;49.760;8.648;2023-09-19T06:42:43;5.32;;;2.33;;
51216;SDS011;37283;49.760;8.648;2023-09-19T06:45:12;5.47;;;2.25;;
51216;SDS011;37283;49.760;8.648;2023-09-19T06:47:47;9.13;;;2.50;;
51216;SDS011;37283;49.760;8.648;2023-09-19T06:50:18;6.60;;;2.38;;
51216;SDS011;37283;49.760;8.648;2023-09-19T06:52:50;4.45;;;2.00;;
51216;SDS011;37283;49.760;8.648;2023-09-19T06:55:18;4.95;;;2.28;;
51216;SDS011;37283;49.760;8.648;2023-09-19T06:57:46;6.75;;;2.60;;
51216;SDS011;37283;49.760;8.648;2023-09-19T07:00:14;5.63;;;2.20;;
51216;SDS011;37283;49.760;8.648;2023-09-19T07:03:04;4.68;;;2.03;;
51216;SDS011;37283;49.760;8.648;2023-09-19T07:05:34;4.80;;;1.80;;
51216;SDS011;37283;49.760;8.648;2023-09-19T07:08:06;7.63;;;2.45;;
51216;SDS011;37283;49.760;8.648;2023-09-19T07:10:34;6.45;;;2.10;;
51216;SDS011;37283;49.760;8.648;2023-09-19T07:13:01;6.50;;;2.10;;
51216;SDS011;37283;49.760;8.648;2023-09-19T07:15:29;6.57;;;2.00;;
51216;SDS011;37283;49.760;8.648;2023-09-19T07:18:00;5.78;;;2.20;;
51216;SDS011;37283;49.760;8.648;2023-09-19T07:20:28;4.28;;;1.75;;
51216;SDS011;37283;49.760;8.648;2023-09-19T07:22:58;7.70;;;1.88;;
51216;SDS011;37283;49.760;8.648;2023-09-19T07:25:28;4.95;;;1.80;;
51216;SDS011;37283;49.760;8.648;2023-09-19T07:27:56;5.88;;;1.90;;
51216;SDS011;37283;49.760;8.648;2023-09-19T07:30:27;4.50;;;1.80;;
51216;SDS011;37283;49.760;8.648;2023-09-19T07:32:53;6.38;;;1.90;;
51216;SDS011;37283;49.760;8.648;2023-09-19T07:35:20;6.53;;;1.90;;
51216;SDS011;37283;49.760;8.648;2023-09-19T07:37:47;4.90;;;1.85;;
51216;SDS011;37283;49.760;8.648;2023-09-19T07:42:42;6.70;;;1.90;;
51216;SDS011;37283;49.760;8.648;2023-09-19T07:45:10;8.52;;;2.00;;
51216;SDS011;37283;49.760;8.648;2023-09-19T07:47:43;3.92;;;1.90;;
51216;SDS011;37283;49.760;8.648;2023-09-19T07:50:14;7.07;;;2.10;;
51216;SDS011;37283;49.760;8.648;2023-09-19T07:52:42;5.05;;;2.03;;
51216;SDS011;37283;49.760;8.648;2023-09-19T07:55:11;5.20;;;2.30;;
51216;SDS011;37283;49.760;8.648;2023-09-19T07:57:45;7.30;;;2.60;;
51216;SDS011;37283;49.760;8.648;2023-09-19T08:00:13;6.00;;;1.83;;
51216;SDS011;37283;49.760;8.648;2023-09-19T08:02:40;4.47;;;1.67;;
51216;SDS011;37283;49.760;8.648;2023-09-19T08:05:08;5.97;;;2.25;;
51216;SDS011;37283;49.760;8.648;2023-09-19T08:07:39;6.07;;;2.15;;
51216;SDS011;37283;49.760;8.648;2023-09-19T08:10:07;4.57;;;1.92;;
51216;SDS011;37283;49.760;8.648;2023-09-19T08:12:34;6.82;;;2.10;;
51216;SDS011;37283;49.760;8.648;2023-09-19T08:15:16;5.60;;;1.73;;
51216;SDS011;37283;49.760;8.648;2023-09-19T08:17:43;6.38;;;2.03;;
51216;SDS011;37283;49.760;8.648;2023-09-19T08:20:10;8.73;;;2.03;;
51216;SDS011;37283;49.760;8.648;2023-09-19T08:22:48;5.63;;;2.20;;
51216;SDS011;37283;49.760;8.648;2023-09-19T08:25:21;7.70;;;1.90;;
51216;SDS011;37283;49.760;8.648;2023-09-19T08:27:48;4.35;;;2.15;;
51216;SDS011;37283;49.760;8.648;2023-09-19T08:30:16;4.60;;;1.67;;
51216;SDS011;37283;49.760;8.648;2023-09-19T08:32:50;9.43;;;2.15;;
51216;SDS011;37283;49.760;8.648;2023-09-19T08:35:17;5.50;;;1.80;;
51216;SDS011;37283;49.760;8.648;2023-09-19T08:37:44;9.13;;;1.90;;
51216;SDS011;37283;49.760;8.648;2023-09-19T08:40:12;8.43;;;2.03;;
51216;SDS011;37283;49.760;8.648;2023-09-19T08:42:55;5.22;;;1.92;;
51216;SDS011;37283;49.760;8.648;2023-09-19T08:45:23;5.95;;;1.70;;
51216;SDS011;37283;49.760;8.648;2023-09-19T08:47:55;6.53;;;2.30;;
51216;SDS011;37283;49.760;8.648;2023-09-19T08:50:27;4.43;;;1.90;;
51216;SDS011;37283;49.760;8.648;2023-09-19T08:52:55;6.13;;;2.25;;
51216;SDS011;37283;49.760;8.648;2023-09-19T08:55:23;4.75;;;2.13;;
51216;SDS011;37283;49.760;8.648;2023-09-19T08:58:00;4.88;;;2.05;;
51216;SDS011;37283;49.760;8.648;2023-09-19T09:00:29;6.07;;;1.90;;
51216;SDS011;37283;49.760;8.648;2023-09-19T09:02:57;6.50;;;2.28;;
51216;SDS011;37283;49.760;8.648;2023-09-19T09:05:25;7.07;;;2.33;;
51216;SDS011;37283;49.760;8.648;2023-09-19T09:07:52;8.27;;;2.15;;
51216;SDS011;37283;49.760;8.648;2023-09-19T09:10:22;7.38;;;2.10;;
51216;SDS011;37283;49.760;8.648;2023-09-19T09:12:50;5.35;;;1.83;;
51216;SDS011;37283;49.760;8.648;2023-09-19T09:15:22;6.57;;;1.95;;
51216;SDS011;37283;49.760;8.648;2023-09-19T09:17:50;6.13;;;2.10;;
51216;SDS011;37283;49.760;8.648;2023-09-19T09:20:19;4.97;;;1.80;;
51216;SDS011;37283;49.760;8.648;2023-09-19T09:22:52;5.07;;;1.80;;
51216;SDS011;37283;49.760;8.648;2023-09-19T09:25:20;4.47;;;2.10;;
51216;SDS011;37283;49.760;8.648;2023-09-19T09:28:00;7.00;;;2.00;;
51216;SDS011;37283;49.760;8.648;2023-09-19T09:30:34;6.95;;;1.98;;
51216;SDS011;37283;49.760;8.648;2023-09-19T09:33:10;7.90;;;2.28;;
51216;SDS011;37283;49.760;8.648;2023-09-19T09:38:19;8.10;;;2.15;;
51216;SDS011;37283;49.760;8.648;2023-09-19T09:40:47;8.48;;;2.20;;
51216;SDS011;37283;49.760;8.648;2023-09-19T09:43:27;7.80;;;2.60;;
51216;SDS011;37283;49.760;8.648;2023-09-19T09:46:14;6.97;;;2.42;;
51216;SDS011;37283;49.760;8.648;2023-09-19T09:48:59;7.13;;;1.88;;
51216;SDS011;37283;49.760;8.648;2023-09-19T09:51:51;7.63;;;2.20;;
51216;SDS011;37283;49.760;8.648;2023-09-19T09:54:35;9.80;;;2.50;;
51216;SDS011;37283;49.760;8.648;2023-09-19T09:57:08;8.68;;;2.60;;
51216;SDS011;37283;49.760;8.648;2023-09-19T09:59:58;8.50;;;2.20;;
51216;SDS011;37283;49.760;8.648;2023-09-19T10:02:42;5.45;;;2.13;;
51216;SDS011;37283;49.760;8.648;2023-09-19T10:07:54;7.57;;;1.98;;
51216;SDS011;37283;49.760;8.648;2023-09-19T10:13:11;5.80;;;2.22;;
51216;SDS011;37283;49.760;8.648;2023-09-19T10:15:47;8.18;;;2.50;;
51216;SDS011;37283;49.760;8.648;2023-09-19T10:18:19;9.68;;;2.60;;
51216;SDS011;37283;49.760;8.648;2023-09-19T10:23:16;8.73;;;2.10;;
51216;SDS011;37283;49.760;8.648;2023-09-19T10:25:48;6.40;;;2.30;;
51216;SDS011;37283;49.760;8.648;2023-09-19T10:28:16;6.30;;;2.05;;
51216;SDS011;37283;49.760;8.648;2023-09-19T10:30:48;8.95;;;2.30;;
51216;SDS011;37283;49.760;8.648;2023-09-19T10:33:20;7.38;;;2.45;;
51216;SDS011;37283;49.760;8.648;2023-09-19T10:35:49;6.85;;;2.05;;
51216;SDS011;37283;49.760;8.648;2023-09-19T10:38:19;8.25;;;2.13;;
51216;SDS011;37283;49.760;8.648;2023-09-19T10:40:51;8.10;;;2.53;;
51216;SDS011;37283;49.760;8.648;2023-09-19T10:43:19;6.75;;;2.22;;
51216;SDS011;37283;49.760;8.648;2023-09-19T10:45:48;7.50;;;2.25;;
51216;SDS011;37283;49.760;8.648;2023-09-19T10:48:19;7.28;;;2.17;;
51216;SDS011;37283;49.760;8.648;2023-09-19T10:51:09;7.43;;;2.25;;
51216;SDS011;37283;49.760;8.648;2023-09-19T10:53:55;6.05;;;2.20;;
51216;SDS011;37283;49.760;8.648;2023-09-19T10:56:31;5.80;;;2.05;;
51216;SDS011;37283;49.760;8.648;2023-09-19T10:59:08;6.25;;;2.30;;
51216;SDS011;37283;49.760;8.648;2023-09-19T11:01:44;9.63;;;2.47;;
51216;SDS011;37283;49.760;8.648;2023-09-19T11:04:20;7.43;;;2.30;;
51216;SDS011;37283;49.760;8.648;2023-09-19T11:07:05;6.57;;;2.13;;
51216;SDS011;37283;49.760;8.648;2023-09-19T11:09:53;7.28;;;2.00;;
51216;SDS011;37283;49.760;8.648;2023-09-19T11:16:02;6.93;;;2.25;;
51216;SDS011;37283;49.760;8.648;2023-09-19T11:26:48;7.05;;;2.10;;
51216;SDS011;37283;49.760;8.648;2023-09-19T11:29:28;7.30;;;2.10;;
51216;SDS011;37283;49.760;8.648;2023-09-19T11:31:55;5.82;;;1.88;;
51216;SDS011;37283;49.760;8.648;2023-09-19T11:37:02;7.90;;;2.28;;
51216;SDS011;37283;49.760;8.648;2023-09-19T11:40:07;5.22;;;1.98;;
51216;SDS011;37283;49.760;8.648;2023-09-19T11:42:45;5.97;;;2.08;;
51216;SDS011;37283;49.760;8.648;2023-09-19T11:48:18;5.32;;;1.73;;
51216;SDS011;37283;49.760;8.648;2023-09-19T11:50:45;5.70;;;1.73;;
51216;SDS011;37283;49.760;8.648;2023-09-19T11:53:13;3.72;;;1.67;;
51216;SDS011;37283;49.760;8.648;2023-09-19T11:55:43;3.70;;;1.40;;
51216;SDS011;37283;49.760;8.648;2023-09-19T11:58:10;5.53;;;1.58;;
51216;SDS011;37283;49.760;8.648;2023-09-19T12:00:40;4.80;;;1.70;;
51216;SDS011;37283;49.760;8.648;2023-09-19T12:03:10;4.68;;;1.70;;
51216;SDS011;37283;49.760;8.648;2023-09-19T12:05:37;6.00;;;1.83;;
51216;SDS011;37283;49.760;8.648;2023-09-19T12:08:05;4.15;;;1.70;;
51216;SDS011;37283;49.760;8.648;2023-09-19T12:10:47;7.25;;;1.60;;
51216;SDS011;37283;49.760;8.648;2023-09-19T12:13:16;4.68;;;1.98;;
51216;SDS011;37283;49.760;8.648;2023-09-19T12:15:44;3.72;;;1.65;;
51216;SDS011;37283;49.760;8.648;2023-09-19T12:18:29;3.88;;;1.67;;
51216;SDS011;37283;49.760;8.648;2023-09-19T12:20:56;4.82;;;1.88;;
51216;SDS011;37283;49.760;8.648;2023-09-19T12:23:28;4.32;;;1.60;;
51216;SDS011;37283;49.760;8.648;2023-09-19T12:25:56;8.82;;;1.95;;
51216;SDS011;37283;49.760;8.648;2023-09-19T12:28:25;5.90;;;2.03;;
51216;SDS011;37283;49.760;8.648;2023-09-19T12:30:53;4.75;;;1.80;;
51216;SDS011;37283;49.760;8.648;2023-09-19T12:33:21;5.57;;;1.70;;
51216;SDS011;37283;49.760;8.648;2023-09-19T12:35:52;4.95;;;1.60;;
51216;SDS011;37283;49.760;8.648;2023-09-19T12:38:26;5.05;;;1.80;;
51216;SDS011;37283;49.760;8.648;2023-09-19T12:41:01;4.35;;;1.75;;
51216;SDS011;37283;49.760;8.648;2023-09-19T12:43:29;4.10;;;1.42;;
51216;SDS011;37283;49.760;8.648;2023-09-19T12:45:59;5.13;;;1.80;;
51216;SDS011;37283;49.760;8.648;2023-09-19T12:48:26;4.18;;;1.77;;
51216;SDS011;37283;49.760;8.648;2023-09-19T12:53:40;4.35;;;1.40;;
51216;SDS011;37283;49.760;8.648;2023-09-19T12:56:11;5.03;;;1.40;;
51216;SDS011;37283;49.760;8.648;2023-09-19T12:58:55;6.75;;;1.60;;
51216;SDS011;37283;49.760;8.648;2023-09-19T13:01:25;4.82;;;1.52;;
51216;SDS011;37283;49.760;8.648;2023-09-19T13:06:46;5.00;;;1.48;;
51216;SDS011;37283;49.760;8.648;2023-09-19T13:09:15;4.20;;;1.60;;
51216;SDS011;37283;49.760;8.648;2023-09-19T13:11:43;5.13;;;1.90;;
51216;SDS011;37283;49.760;8.648;2023-09-19T13:14:14;3.90;;;1.55;;
51216;SDS011;37283;49.760;8.648;2023-09-19T13:25:14;4.80;;;1.83;;
51216;SDS011;37283;49.760;8.648;2023-09-19T13:27:45;5.43;;;1.58;;
51216;SDS011;37283;49.760;8.648;2023-09-19T13:30:19;5.05;;;1.80;;
51216;SDS011;37283;49.760;8.648;2023-09-19T13:32:46;4.20;;;2.08;;
51216;SDS011;37283;49.760;8.648;2023-09-19T13:35:14;2.85;;;1.42;;
51216;SDS011;37283;49.760;8.648;2023-09-19T13:37:41;4.80;;;1.65;;
51216;SDS011;37283;49.760;8.648;2023-09-19T13:40:13;4.38;;;1.40;;
51216;SDS011;37283;49.760;8.648;2023-09-19T13:42:40;4.13;;;1.42;;
51216;SDS011;37283;49.760;8.648;2023-09-19T13:45:07;4.35;;;1.30;;
51216;SDS011;37283;49.760;8.648;2023-09-19T13:47:38;3.08;;;1.42;;
51216;SDS011;37283;49.760;8.648;2023-09-19T13:50:05;4.75;;;1.52;;
51216;SDS011;37283;49.760;8.648;2023-09-19T13:52:33;3.95;;;1.45;;
51216;SDS011;37283;49.760;8.648;2023-09-19T13:54:59;4.32;;;1.55;;
51216;SDS011;37283;49.760;8.648;2023-09-19T13:57:26;3.55;;;1.10;;
51216;SDS011;37283;49.760;8.648;2023-09-19T13:59:53;2.72;;;1.35;;
51216;SDS011;37283;49.760;8.648;2023-09-19T14:02:21;5.20;;;1.60;;
51216;SDS011;37283;49.760;8.648;2023-09-19T14:04:49;3.63;;;1.33;;
51216;SDS011;37283;49.760;8.648;2023-09-19T14:07:16;3.67;;;1.50;;
51216;SDS011;37283;49.760;8.648;2023-09-19T14:09:44;4.60;;;1.73;;
51216;SDS011;37283;49.760;8.648;2023-09-19T14:12:11;4.28;;;1.50;;
51216;SDS011;37283;49.760;8.648;2023-09-19T14:14:38;5.75;;;1.50;;
51216;SDS011;37283;49.760;8.648;2023-09-19T14:17:05;2.75;;;1.30;;
51216;SDS011;37283;49.760;8.648;2023-09-19T14:19:33;3.47;;;1.40;;
51216;SDS011;37283;49.760;8.648;2023-09-19T14:22:01;3.92;;;1.40;;
51216;SDS011;37283;49.760;8.648;2023-09-19T14:24:33;2.75;;;1.40;;
51216;SDS011;37283;49.760;8.648;2023-09-19T14:27:01;4.32;;;1.73;;
51216;SDS011;37283;49.760;8.648;2023-09-19T14:29:30;3.63;;;1.40;;
51216;SDS011;37283;49.760;8.648;2023-09-19T14:31:57;3.33;;;1.23;;
51216;SDS011;37283;49.760;8.648;2023-09-19T14:34:25;2.20;;;1.13;;
51216;SDS011;37283;49.760;8.648;2023-09-19T14:36:51;3.38;;;1.70;;
51216;SDS011;37283;49.760;8.648;2023-09-19T14:39:18;4.80;;;1.27;;
51216;SDS011;37283;49.760;8.648;2023-09-19T14:41:46;2.65;;;1.40;;
51216;SDS011;37283;49.760;8.648;2023-09-19T14:44:12;4.55;;;1.65;;
51216;SDS011;37283;49.760;8.648;2023-09-19T14:46:39;3.80;;;1.30;;
51216;SDS011;37283;49.760;8.648;2023-09-19T14:49:06;3.40;;;1.33;;
51216;SDS011;37283;49.760;8.648;2023-09-19T14:51:33;4.80;;;1.40;;
51216;SDS011;37283;49.760;8.648;2023-09-19T14:54:01;2.90;;;1.38;;
51216;SDS011;37283;49.760;8.648;2023-09-19T14:56:29;2.65;;;1.30;;
51216;SDS011;37283;49.760;8.648;2023-09-19T14:58:57;2.38;;;1.40;;
51216;SDS011;37283;49.760;8.648;2023-09-19T15:01:23;2.85;;;1.30;;
51216;SDS011;37283;49.760;8.648;2023-09-19T15:03:50;3.80;;;1.42;;
51216;SDS011;37283;49.760;8.648;2023-09-19T15:06:17;4.18;;;1.60;;
51216;SDS011;37283;49.760;8.648;2023-09-19T15:08:46;2.78;;;1.20;;
51216;SDS011;37283;49.760;8.648;2023-09-19T15:11:17;3.57;;;1.27;;
51216;SDS011;37283;49.760;8.648;2023-09-19T15:13:44;3.85;;;1.23;;
51216;SDS011;37283;49.760;8.648;2023-09-19T15:16:12;2.83;;;1.08;;
51216;SDS011;37283;49.760;8.648;2023-09-19T15:18:40;4.38;;;1.48;;
51216;SDS011;37283;49.760;8.648;2023-09-19T15:21:08;2.97;;;1.15;;
51216;SDS011;37283;49.760;8.648;2023-09-19T15:23:37;2.83;;;1.30;;
51216;SDS011;37283;49.760;8.648;2023-09-19T15:26:04;2.88;;;1.30;;
51216;SDS011;37283;49.760;8.648;2023-09-19T15:28:32;4.00;;;1.23;;
51216;SDS011;37283;49.760;8.648;2023-09-19T15:31:01;1.77;;;0.93;;
51216;SDS011;37283;49.760;8.648;2023-09-19T15:33:32;2.40;;;1.10;;
51216;SDS011;37283;49.760;8.648;2023-09-19T15:36:12;3.58;;;1.27;;
51216;SDS011;37283;49.760;8.648;2023-09-19T15:38:55;1.92;;;1.17;;
51216;SDS011;37283;49.760;8.648;2023-09-19T15:41:29;2.70;;;1.10;;
51216;SDS011;37283;49.760;8.648;2023-09-19T15:43:57;2.58;;;1.10;;
51216;SDS011;37283;49.760;8.648;2023-09-19T15:46:28;3.53;;;1.17;;
51216;SDS011;37283;49.760;8.648;2023-09-19T15:48:56;2.10;;;1.00;;
51216;SDS011;37283;49.760;8.648;2023-09-19T15:51:23;2.17;;;1.08;;
51216;SDS011;37283;49.760;8.648;2023-09-19T15:53:51;3.75;;;1.40;;
51216;SDS011;37283;49.760;8.648;2023-09-19T15:56:20;3.03;;;1.27;;
51216;SDS011;37283;49.760;8.648;2023-09-19T15:58:50;5.15;;;1.52;;
51216;SDS011;37283;49.760;8.648;2023-09-19T16:01:17;3.05;;;1.35;;
51216;SDS011;37283;49.760;8.648;2023-09-19T16:03:48;3.15;;;1.40;;